createdAt,value
2023-01-18T00:01:47.196Z,85.12
2023-01-18T00:05:09.694Z,84.91
2023-01-18T00:08:32.985Z,85.16
2023-01-18T00:11:59.968Z,85.54
2023-01-18T00:15:21.575Z,84.20
2023-01-18T00:18:44.451Z,84.37
2023-01-18T00:22:08.397Z,84.73
2023-01-18T00:25:32.796Z,84.08
2023-01-18T00:28:58.203Z,83.85
2023-01-18T00:32:22.991Z,84.25
2023-01-18T00:35:44.575Z,84.03
2023-01-18T00:39:06.192Z,83.85
2023-01-18T00:42:48.585Z,84.52
2023-01-18T00:46:11.711Z,83.66
2023-01-18T00:49:35.460Z,83.06
2023-01-18T00:53:00.374Z,82.74
2023-01-18T00:56:22.870Z,82.45
2023-01-18T00:59:46.927Z,82.46
2023-01-18T01:03:11.448Z,83.40
2023-01-18T01:06:47.398Z,83.92
2023-01-18T01:10:09.796Z,84.67
2023-01-18T01:13:50.218Z,84.45
2023-01-18T01:17:32.567Z,84.40
2023-01-18T01:21:12.409Z,85.92
2023-01-18T01:24:52.803Z,86.49
2023-01-18T01:28:14.433Z,86.63
2023-01-18T01:31:40.924Z,86.85
2023-01-18T01:35:04.716Z,86.71
2023-01-18T01:38:26.852Z,85.97
2023-01-18T01:41:49.185Z,85.18
2023-01-18T01:45:13.183Z,85.24
2023-01-18T01:48:37.151Z,85.44
2023-01-18T01:52:03.798Z,86.11
2023-01-18T01:55:32.299Z,86.71
2023-01-18T01:58:58.464Z,87.01
2023-01-18T02:02:21.987Z,87.51
2023-01-18T02:05:46.824Z,87.10
2023-01-18T02:09:14.401Z,87.64
2023-01-18T02:12:42.345Z,87.75
2023-01-18T02:16:20.956Z,87.24
2023-01-18T02:19:57.823Z,86.73
2023-01-18T02:23:40.259Z,86.56
2023-01-18T02:27:20.369Z,86.84
2023-01-18T02:30:47.866Z,87.29
2023-01-18T02:34:24.105Z,87.28
2023-01-18T02:37:53.080Z,87.46
2023-01-18T02:41:59.361Z,88.01
2023-01-18T02:46:02.909Z,87.05
2023-01-18T02:49:29.829Z,87.50
2023-01-18T02:52:53.713Z,86.99
2023-01-18T02:56:18.339Z,87.77
2023-01-18T02:59:46.845Z,87.31
2023-01-18T03:03:10.977Z,87.39
2023-01-18T03:06:33.529Z,87.73
2023-01-18T03:09:56.975Z,87.93
2023-01-18T03:13:29.139Z,87.49
2023-01-18T03:17:09.217Z,87.51
2023-01-18T03:20:34.684Z,87.58
2023-01-18T03:23:57.816Z,87.66
2023-01-18T03:27:37.892Z,87.08
2023-01-18T03:31:21.162Z,86.89
2023-01-18T03:34:51.856Z,87.20
2023-01-18T03:38:14.469Z,86.87
2023-01-18T03:41:43.424Z,87.96
2023-01-18T03:45:32.900Z,87.17
2023-01-18T03:48:55.194Z,87.03
2023-01-18T03:52:20.040Z,86.90
2023-01-18T03:55:47.397Z,87.20
2023-01-18T03:59:09.203Z,87.93
2023-01-18T04:02:32.099Z,86.92
2023-01-18T04:05:53.883Z,86.95
2023-01-18T04:09:17.687Z,87.40
2023-01-18T04:12:39.364Z,87.19
2023-01-18T04:16:01.332Z,86.42
2023-01-18T04:19:25.432Z,86.92
2023-01-18T04:22:52.509Z,87.15
2023-01-18T04:26:16.657Z,86.77
2023-01-18T04:29:40.827Z,86.45
2023-01-18T04:33:02.391Z,87.33
2023-01-18T04:36:24.061Z,87.68
2023-01-18T04:39:47.867Z,87.61
2023-01-18T04:43:09.511Z,88.13
2023-01-18T04:46:31.166Z,86.73
2023-01-18T04:49:52.801Z,86.73
2023-01-18T04:53:20.698Z,87.11
2023-01-18T04:56:42.396Z,87.69
2023-01-18T05:00:04.330Z,88.12
2023-01-18T05:03:28.197Z,88.44
2023-01-18T05:06:49.882Z,87.51
2023-01-18T05:10:14.301Z,87.00
2023-01-18T05:13:36.265Z,87.15
2023-01-18T05:16:58.266Z,87.13
2023-01-18T05:20:22.161Z,87.01
2023-01-18T05:23:46.441Z,88.19
2023-01-18T05:27:11.935Z,88.45
2023-01-18T05:30:38.201Z,88.26
2023-01-18T05:33:59.847Z,88.76
2023-01-18T05:37:21.466Z,88.24
2023-01-18T05:40:44.909Z,88.27
2023-01-18T05:44:06.653Z,88.46
2023-01-18T05:47:28.258Z,88.97
2023-01-18T05:50:49.907Z,87.37
2023-01-18T05:54:13.744Z,87.78
2023-01-18T05:57:37.682Z,87.33
2023-01-18T06:00:59.399Z,86.82
2023-01-18T06:04:22.212Z,87.45
2023-01-18T06:07:43.977Z,87.71
2023-01-18T06:11:06.512Z,88.17
2023-01-18T06:14:28.116Z,87.41
2023-01-18T06:17:49.922Z,85.83
2023-01-18T06:21:11.971Z,86.38
2023-01-18T06:24:36.284Z,85.65
2023-01-18T06:28:00.238Z,84.71
2023-01-18T06:31:21.891Z,85.11
2023-01-18T06:34:43.508Z,86.71
2023-01-18T06:38:05.599Z,85.50
2023-01-18T06:41:27.284Z,85.77
2023-01-18T06:44:49.004Z,85.97
2023-01-18T06:48:10.538Z,87.26
2023-01-18T06:51:32.137Z,87.51
2023-01-18T06:54:55.925Z,86.88
2023-01-18T06:58:17.509Z,86.69
2023-01-18T07:01:41.982Z,86.26
2023-01-18T07:05:04.285Z,85.41
2023-01-18T07:08:31.103Z,86.79
2023-01-18T07:11:52.723Z,91.88
2023-01-18T07:15:21.582Z,96.17
2023-01-18T07:18:48.676Z,93.96
2023-01-18T07:22:10.365Z,90.87
2023-01-18T07:25:34.740Z,85.40
2023-01-18T07:28:58.354Z,85.60
2023-01-18T07:32:19.969Z,86.77
2023-01-18T07:35:43.754Z,81.43
2023-01-18T07:39:08.360Z,81.95
2023-01-18T07:42:29.993Z,81.93
2023-01-18T07:46:01.734Z,82.20
2023-01-18T07:49:23.383Z,83.48
2023-01-18T07:52:45.002Z,83.06
2023-01-18T07:56:13.792Z,83.65
2023-01-18T07:59:35.291Z,84.00
2023-01-18T08:02:59.001Z,83.74
2023-01-18T08:06:25.100Z,90.18
2023-01-18T08:09:46.802Z,88.28
2023-01-18T08:13:10.238Z,85.15
2023-01-18T08:16:31.819Z,86.25
2023-01-18T08:19:54.033Z,86.84
2023-01-18T08:23:16.867Z,83.77
2023-01-18T08:26:39.072Z,82.88
2023-01-18T08:30:03.353Z,78.88
2023-01-18T08:33:25.041Z,77.58
2023-01-18T08:36:51.036Z,79.34
2023-01-18T08:40:12.972Z,78.44
2023-01-18T08:43:34.704Z,78.39
2023-01-18T08:46:56.344Z,77.14
2023-01-18T08:50:18.059Z,75.18
2023-01-18T08:53:39.902Z,73.58
2023-01-18T08:57:02.633Z,72.73
2023-01-18T09:00:27.008Z,70.12
2023-01-18T09:03:55.018Z,65.47
2023-01-18T09:07:17.784Z,65.69
2023-01-18T09:10:41.694Z,67.71
2023-01-18T09:14:03.382Z,68.09
2023-01-18T09:17:24.944Z,76.92
2023-01-18T09:20:46.948Z,77.32
2023-01-18T09:24:08.609Z,78.47
2023-01-18T09:27:30.636Z,75.40
2023-01-18T09:30:55.799Z,74.69
2023-01-18T09:34:20.147Z,74.94
2023-01-18T09:37:41.905Z,76.66
2023-01-18T09:41:10.790Z,74.90
2023-01-18T09:44:40.649Z,76.25
2023-01-18T09:48:11.479Z,75.82
2023-01-18T09:51:59.245Z,78.17
2023-01-18T09:55:47.673Z,79.23
2023-01-18T09:59:21.563Z,78.95
2023-01-18T10:02:46.435Z,78.84
2023-01-18T10:06:15.575Z,78.65
2023-01-18T10:09:44.725Z,78.78
2023-01-18T10:13:29.551Z,78.65
2023-01-18T10:17:03.105Z,77.64
2023-01-18T10:20:37.134Z,76.26
2023-01-18T10:24:32.107Z,83.33
2023-01-18T10:28:33.121Z,76.76
2023-01-18T10:32:03.930Z,75.86
2023-01-18T10:35:28.547Z,78.92
2023-01-18T10:38:53.383Z,79.80
2023-01-18T10:42:22.405Z,71.90
2023-01-18T10:45:44.097Z,71.50
2023-01-18T10:49:08.362Z,62.64
2023-01-18T10:52:32.019Z,60.58
2023-01-18T10:56:02.192Z,63.38
2023-01-18T10:59:29.911Z,67.11
2023-01-18T11:02:53.319Z,68.71
2023-01-18T11:06:17.158Z,68.60
2023-01-18T11:09:43.245Z,68.45
2023-01-18T11:13:42.591Z,63.91
2023-01-18T11:17:11.489Z,59.52
2023-01-18T11:20:50.088Z,62.19
2023-01-18T11:24:14.674Z,65.98
2023-01-18T11:27:36.916Z,69.47
2023-01-18T11:31:12.902Z,69.92
2023-01-18T11:34:37.721Z,76.43
2023-01-18T11:38:03.221Z,73.52
2023-01-18T11:41:24.816Z,71.58
2023-01-18T11:44:58.514Z,72.82
2023-01-18T11:48:42.129Z,69.26
2023-01-18T11:52:23.228Z,68.64
2023-01-18T11:55:56.168Z,64.79
2023-01-18T11:59:26.503Z,63.58
2023-01-18T12:03:18.539Z,62.20
2023-01-18T12:06:49.175Z,60.06
2023-01-18T12:10:24.838Z,57.70
2023-01-18T12:14:03.219Z,57.90
2023-01-18T12:18:11.373Z,54.63
2023-01-18T12:21:55.703Z,56.77
2023-01-18T12:25:40.793Z,58.34
2023-01-18T12:29:24.214Z,59.66
2023-01-18T12:33:22.640Z,60.43
2023-01-18T12:37:12.342Z,58.39
2023-01-18T12:40:42.607Z,61.36
2023-01-18T12:44:47.250Z,63.45
2023-01-18T12:48:36.052Z,62.62
2023-01-18T12:52:17.740Z,64.34
2023-01-18T12:55:49.339Z,67.80
2023-01-18T12:59:20.860Z,63.97
2023-01-18T13:02:45.792Z,61.58
2023-01-18T13:06:13.037Z,64.05
2023-01-18T13:09:40.344Z,61.28
2023-01-18T13:13:04.224Z,56.89
2023-01-18T13:17:05.033Z,56.64
2023-01-18T13:20:56.756Z,59.26
2023-01-18T13:24:30.439Z,59.85
2023-01-18T13:27:58.762Z,62.01
2023-01-18T13:31:30.564Z,64.08
2023-01-18T13:35:19.693Z,65.09
2023-01-18T13:38:52.148Z,66.88
2023-01-18T13:42:13.807Z,67.52
2023-01-18T13:46:07.231Z,68.34
2023-01-18T13:49:47.372Z,68.75
2023-01-18T13:53:13.767Z,69.30
2023-01-18T13:56:37.620Z,70.30
2023-01-18T14:00:00.216Z,72.60
2023-01-18T14:03:30.224Z,73.64
2023-01-18T14:06:57.534Z,75.07
2023-01-18T14:10:31.372Z,73.82
2023-01-18T14:13:53.010Z,73.63
2023-01-18T14:17:15.145Z,72.21
2023-01-18T14:20:42.154Z,73.87
2023-01-18T14:24:37.233Z,66.98
2023-01-18T14:28:09.718Z,67.70
2023-01-18T14:31:36.618Z,68.78
2023-01-18T14:35:02.714Z,68.86
2023-01-18T14:38:25.543Z,68.66
2023-01-18T14:41:55.459Z,68.40
2023-01-18T14:45:24.866Z,83.55
2023-01-18T14:48:53.382Z,80.13
2023-01-18T14:52:17.123Z,77.75
2023-01-18T14:55:39.444Z,75.93
2023-01-18T14:59:16.344Z,71.87
2023-01-18T15:02:39.138Z,69.47
2023-01-18T15:06:25.142Z,70.37
2023-01-18T15:09:47.281Z,70.83
2023-01-18T15:13:09.175Z,71.92
2023-01-18T15:16:31.352Z,70.92
2023-01-18T15:19:56.300Z,71.61
2023-01-18T15:23:18.039Z,71.80
2023-01-18T15:26:43.822Z,74.13
2023-01-18T15:30:12.880Z,74.64
2023-01-18T15:33:36.526Z,75.80
2023-01-18T15:37:00.288Z,70.75
2023-01-18T15:40:24.831Z,70.50
2023-01-18T15:43:49.282Z,71.47
2023-01-18T15:47:29.205Z,71.53
2023-01-18T15:50:53.561Z,72.17
2023-01-18T15:54:19.265Z,72.34
2023-01-18T15:57:52.744Z,73.33
2023-01-18T16:01:16.378Z,74.72
2023-01-18T16:04:40.481Z,75.95
2023-01-18T16:08:22.724Z,75.29
2023-01-18T16:11:52.702Z,75.89
2023-01-18T16:15:25.728Z,77.12
2023-01-18T16:19:23.386Z,77.43
2023-01-18T16:22:46.430Z,76.54
2023-01-18T16:26:10.367Z,76.47
2023-01-18T16:29:45.137Z,76.19
2023-01-18T16:33:18.516Z,76.36
2023-01-18T16:36:43.059Z,76.72
2023-01-18T16:40:09.311Z,76.85
2023-01-18T16:43:34.855Z,76.77
2023-01-18T16:46:56.439Z,77.05
2023-01-18T16:50:18.934Z,76.78
2023-01-18T16:53:40.663Z,77.19
2023-01-18T16:57:04.747Z,78.08
2023-01-18T17:00:33.218Z,78.76
2023-01-18T17:03:54.868Z,79.23
2023-01-18T17:07:16.510Z,79.65
2023-01-18T17:10:45.205Z,81.15
2023-01-18T17:14:06.711Z,93.33
2023-01-18T17:17:30.735Z,78.97
2023-01-18T17:20:58.349Z,78.00
2023-01-18T17:24:25.105Z,79.36
2023-01-18T17:27:49.623Z,79.00
2023-01-18T17:31:11.567Z,80.01
2023-01-18T17:34:35.726Z,79.23
2023-01-18T17:38:05.032Z,79.38
2023-01-18T17:41:34.440Z,79.10
2023-01-18T17:45:02.690Z,79.36
2023-01-18T17:48:24.347Z,78.58
2023-01-18T17:51:48.165Z,79.24
2023-01-18T17:55:12.746Z,79.47
2023-01-18T17:58:34.445Z,79.69
2023-01-18T18:01:56.128Z,79.82
2023-01-18T18:05:21.025Z,79.71
2023-01-18T18:08:42.798Z,79.67
2023-01-18T18:12:05.208Z,79.74
2023-01-18T18:15:27.396Z,80.26
2023-01-18T18:18:48.983Z,80.50
2023-01-18T18:22:12.804Z,80.89
2023-01-18T18:25:34.376Z,82.05
2023-01-18T18:28:56.018Z,82.20
2023-01-18T18:32:17.671Z,82.82
2023-01-18T18:35:39.319Z,84.21
2023-01-18T18:39:01.900Z,84.10
2023-01-18T18:42:24.239Z,84.09
2023-01-18T18:45:46.676Z,85.50
2023-01-18T18:49:08.454Z,84.45
2023-01-18T18:52:32.628Z,84.56
2023-01-18T18:55:59.799Z,85.24
2023-01-18T18:59:26.075Z,85.60
2023-01-18T19:02:47.758Z,85.40
2023-01-18T19:06:13.057Z,84.99
2023-01-18T19:09:34.974Z,85.49
2023-01-18T19:12:56.896Z,85.68
2023-01-18T19:16:18.606Z,85.74
2023-01-18T19:19:40.194Z,85.60
2023-01-18T19:23:02.347Z,85.37
2023-01-18T19:26:24.285Z,86.52
2023-01-18T19:29:45.879Z,86.37
2023-01-18T19:33:08.177Z,86.95
2023-01-18T19:36:30.117Z,86.66
2023-01-18T19:39:51.667Z,86.68
2023-01-18T19:43:13.678Z,86.25
2023-01-18T19:46:35.620Z,87.13
2023-01-18T19:50:02.894Z,87.06
2023-01-18T19:53:24.520Z,87.25
2023-01-18T19:56:49.070Z,86.99
2023-01-18T20:00:11.509Z,87.16
2023-01-18T20:03:33.815Z,87.53
2023-01-18T20:06:58.270Z,87.25
2023-01-18T20:10:22.429Z,87.98
2023-01-18T20:13:50.766Z,88.44
2023-01-18T20:17:15.214Z,88.20
2023-01-18T20:20:39.416Z,86.95
2023-01-18T20:24:01.095Z,87.96
2023-01-18T20:27:22.747Z,87.86
2023-01-18T20:30:50.321Z,87.79
2023-01-18T20:34:11.891Z,88.42
2023-01-18T20:37:33.805Z,88.72
2023-01-18T20:40:55.520Z,88.20
2023-01-18T20:44:17.427Z,88.57
2023-01-18T20:47:41.175Z,87.98
2023-01-18T20:51:04.189Z,88.57
2023-01-18T20:54:28.036Z,88.25
2023-01-18T20:57:54.759Z,88.40
2023-01-18T21:01:21.744Z,87.94
2023-01-18T21:04:43.396Z,88.19
2023-01-18T21:08:07.300Z,87.84
2023-01-18T21:11:29.034Z,86.65
2023-01-18T21:14:50.647Z,86.80
2023-01-18T21:18:12.594Z,87.50
2023-01-18T21:21:36.945Z,87.98
2023-01-18T21:24:58.570Z,87.84
2023-01-18T21:28:22.758Z,88.75
2023-01-18T21:31:44.570Z,88.57
2023-01-18T21:35:08.334Z,87.18
2023-01-18T21:38:30.175Z,88.45
2023-01-18T21:42:10.977Z,88.49
2023-01-18T21:45:51.368Z,88.72
2023-01-18T21:49:52.032Z,88.62
2023-01-18T21:53:36.119Z,87.95
2023-01-18T21:57:00.149Z,87.96
2023-01-18T22:00:24.229Z,87.88
2023-01-18T22:04:04.946Z,87.15
2023-01-18T22:07:28.336Z,87.05
2023-01-18T22:10:50.033Z,87.01
2023-01-18T22:14:11.907Z,86.43
2023-01-18T22:17:33.706Z,85.81
2023-01-18T22:20:58.443Z,85.87
2023-01-18T22:24:22.038Z,85.53
2023-01-18T22:27:46.283Z,86.41
2023-01-18T22:31:08.413Z,86.59
2023-01-18T22:34:30.126Z,86.81
2023-01-18T22:37:52.315Z,86.33
2023-01-18T22:41:16.654Z,86.88
2023-01-18T22:44:38.230Z,87.25
2023-01-18T22:48:00.647Z,87.77
2023-01-18T22:51:25.286Z,87.43
2023-01-18T22:54:46.918Z,87.43
2023-01-18T22:58:08.513Z,86.49
2023-01-18T23:01:32.483Z,87.52
2023-01-18T23:04:57.109Z,87.25
2023-01-18T23:08:18.708Z,87.30
2023-01-18T23:11:40.848Z,87.44
2023-01-18T23:15:21.027Z,87.17
2023-01-18T23:18:45.623Z,87.79
2023-01-18T23:22:07.661Z,87.75
2023-01-18T23:25:30.040Z,87.71
2023-01-18T23:28:53.837Z,87.50
2023-01-18T23:32:15.852Z,87.65
2023-01-18T23:35:37.444Z,87.43
2023-01-18T23:39:17.530Z,87.52
2023-01-18T23:42:57.589Z,87.41
2023-01-18T23:46:37.689Z,87.07
2023-01-18T23:50:17.884Z,86.79
2023-01-18T23:53:57.937Z,86.00
2023-01-18T23:57:21.771Z,85.86
